Time;durP1;ratioP1;P1;durP2;ratioP2;P2;SDS_P1;SDS_P2;PMS_P1;PMS_P2;Temp;Humidity;BMP_temperature;BMP_pressure;BME280_temperature;BME280_humidity;BME280_pressure;Samples;Min_cycle;Max_cycle;Signal;HPM_P1;HPM_P2
2021/12/14 00:01:39;;;;;;;;;19.75;9.50;;;;;9.06;77.57;102069.25;5077859;28;46630;-78
2021/12/14 00:04:16;;;;;;;;;11.00;10.25;;;;;9.00;77.62;102058.19;5078361;28;46100;-79
2021/12/14 00:06:42;;;;;;;;;7.75;7.75;;;;;8.93;77.58;102056.72;5078325;28;45915;-79
2021/12/14 00:09:10;;;;;;;;;9.50;9.00;;;;;8.90;77.44;102051.63;5078269;28;45518;-80
2021/12/14 00:14:27;;;;;;;;;11.00;9.50;;;;;8.87;77.49;102047.38;5077161;27;47815;-79
2021/12/14 00:16:58;;;;;;;;;11.00;10.00;;;;;8.82;77.49;102025.78;5077150;28;45531;-79
2021/12/14 00:19:25;;;;;;;;;11.00;10.00;;;;;8.83;77.40;102023.13;5077269;28;45742;-78
2021/12/14 00:21:54;;;;;;;;;11.75;11.00;;;;;8.83;77.37;102037.97;5077015;28;46814;-79
2021/12/14 00:24:23;;;;;;;;;11.75;7.50;;;;;8.88;77.56;102053.44;5077263;28;45610;-78
2021/12/14 00:26:54;;;;;;;;;10.75;6.50;;;;;8.87;77.51;102056.97;5077279;28;45698;-78
2021/12/14 00:29:26;;;;;;;;;9.00;8.25;;;;;8.82;77.84;102055.41;5077377;28;45535;-77
2021/12/14 00:31:57;;;;;;;;;10.75;8.25;;;;;8.75;77.66;102048.72;5076773;28;45570;-78
2021/12/14 00:34:34;;;;;;;;;10.50;8.25;;;;;8.74;77.61;102043.56;5077053;27;47143;-78
2021/12/14 00:37:00;;;;;;;;;7.00;7.00;;;;;8.62;78.03;102036.22;5076993;28;45819;-79
2021/12/14 00:39:26;;;;;;;;;7.00;5.00;;;;;8.59;77.95;102031.94;5077706;28;45592;-81
2021/12/14 00:41:51;;;;;;;;;5.75;5.25;;;;;8.46;77.83;102030.75;5077485;27;46567;-81
2021/12/14 00:44:17;;;;;;;;;7.00;6.00;;;;;8.42;77.93;102039.63;5078347;28;45545;-80
2021/12/14 00:46:42;;;;;;;;;4.00;1.50;;;;;8.38;78.09;102049.31;5076912;28;45654;-79
2021/12/14 00:49:11;;;;;;;;;12.00;6.75;;;;;8.28;77.96;102032.28;5077301;28;45572;-78
2021/12/14 00:51:37;;;;;;;;;8.00;6.00;;;;;8.27;78.03;102037.53;5076784;28;45550;-79
2021/12/14 00:54:09;;;;;;;;;8.50;6.00;;;;;8.28;78.25;102028.81;5076671;28;46191;-77
2021/12/14 00:56:34;;;;;;;;;7.50;7.00;;;;;8.22;78.23;102019.47;5076957;28;45615;-76
2021/12/14 00:59:04;;;;;;;;;10.00;6.75;;;;;8.15;78.18;102017.97;5076927;28;45422;-78
2021/12/14 01:01:36;;;;;;;;;6.00;5.25;;;;;8.10;78.40;102030.34;5076573;28;45560;-79
2021/12/14 01:04:08;;;;;;;;;8.50;6.75;;;;;8.05;78.63;102034.06;5075281;28;48261;-80
2021/12/14 01:06:37;;;;;;;;;6.50;6.50;;;;;8.02;78.77;102046.31;5076889;28;45561;-80
2021/12/14 01:09:05;;;;;;;;;9.00;5.25;;;;;7.88;78.66;102032.91;5077070;28;45709;-79
2021/12/14 01:11:38;;;;;;;;;5.50;3.00;;;;;7.96;78.59;102049.16;5076580;28;45548;-81
2021/12/14 01:14:15;;;;;;;;;6.25;5.25;;;;;7.95;78.57;102044.00;5076242;28;45661;-80
2021/12/14 01:16:52;;;;;;;;;5.50;4.50;;;;;7.94;78.60;102053.56;5076434;28;45837;-78
2021/12/14 01:19:25;;;;;;;;;9.25;6.75;;;;;7.90;78.77;102044.16;5078593;28;45534;-79
2021/12/14 01:27:18;;;;;;;;;9.25;6.75;;;;;7.87;78.77;102065.16;5080852;28;45520;-79
2021/12/14 01:29:51;;;;;;;;;7.00;6.50;;;;;7.88;79.12;102072.06;5090793;27;45530;-78
2021/12/14 01:32:17;;;;;;;;;6.25;5.25;;;;;7.82;79.29;102072.31;5076153;28;45771;-80
2021/12/14 01:34:42;;;;;;;;;6.75;5.50;;;;;7.82;79.29;102084.50;5076177;28;45625;-78
2021/12/14 01:37:13;;;;;;;;;6.00;5.00;;;;;7.80;79.24;102075.88;5075981;28;45660;-77
2021/12/14 01:39:50;;;;;;;;;6.25;5.75;;;;;7.79;79.40;102079.38;5075854;28;45521;-78
2021/12/14 01:42:20;;;;;;;;;8.50;6.50;;;;;7.78;79.46;102096.78;5076374;28;45794;-76
2021/12/14 01:44:55;;;;;;;;;10.25;6.25;;;;;7.77;79.33;102097.72;5076046;28;46120;-78
2021/12/14 01:47:32;;;;;;;;;6.00;5.00;;;;;7.79;79.47;102102.84;5075890;28;45652;-79
2021/12/14 01:49:58;;;;;;;;;4.75;4.25;;;;;7.80;79.32;102107.16;5076207;28;45640;-78
2021/12/14 01:52:29;;;;;;;;;6.00;5.00;;;;;7.81;79.41;102108.88;5075822;28;45829;-78
2021/12/14 01:55:01;;;;;;;;;7.00;5.75;;;;;7.80;79.39;102121.06;5108314;27;46124;-77
2021/12/14 01:57:29;;;;;;;;;7.00;6.25;;;;;7.80;79.57;102110.63;5075451;28;45728;-78
2021/12/14 01:59:58;;;;;;;;;9.75;6.00;;;;;7.80;79.67;102117.59;5074687;28;45587;-78
2021/12/14 02:02:40;;;;;;;;;5.00;5.00;;;;;7.75;79.59;102111.69;5076050;28;45629;-78
2021/12/14 02:05:28;;;;;;;;;5.25;5.00;;;;;7.73;79.62;102119.56;5075935;28;45934;-78
2021/12/14 02:07:57;;;;;;;;;10.50;7.50;;;;;7.78;79.86;102135.06;5075454;27;45612;-78
2021/12/14 02:10:29;;;;;;;;;9.25;6.50;;;;;7.75;79.75;102140.41;5075464;28;45603;-79
2021/12/14 02:12:57;;;;;;;;;7.00;6.50;;;;;7.53;79.85;102112.44;5076098;28;46326;-79
2021/12/14 02:15:26;;;;;;;;;11.25;9.00;;;;;7.76;79.76;102152.53;5076023;28;46170;-80
2021/12/14 02:17:54;;;;;;;;;13.00;8.50;;;;;7.77;79.97;102162.94;5075868;28;45526;-79
2021/12/14 02:20:29;;;;;;;;;9.00;5.75;;;;;7.77;80.13;102169.91;5075457;28;45841;-78
2021/12/14 02:22:55;;;;;;;;;7.50;5.25;;;;;7.73;79.95;102157.84;5074880;28;46929;-78
2021/12/14 02:25:22;;;;;;;;;10.00;10.00;;;;;7.63;80.10;102139.06;5075628;28;46369;-78
2021/12/14 02:27:50;;;;;;;;;11.00;7.75;;;;;7.64;80.08;102138.16;5075443;28;45909;-79
2021/12/14 02:30:37;;;;;;;;;8.50;6.75;;;;;7.71;80.02;102141.41;5075152;28;45862;-78
2021/12/14 02:33:14;;;;;;;;;5.75;5.25;;;;;7.69;80.19;102127.56;5075123;28;46393;-78
2021/12/14 02:35:40;;;;;;;;;10.50;9.25;;;;;7.70;80.29;102129.28;5074847;28;46078;-77
2021/12/14 02:38:11;;;;;;;;;7.50;6.75;;;;;7.69;80.11;102101.47;5075321;28;45758;-77
2021/12/14 02:40:57;;;;;;;;;6.75;6.50;;;;;7.73;80.10;102097.84;5075443;28;45532;-77
2021/12/14 02:43:52;;;;;;;;;9.00;7.00;;;;;7.76;79.90;102100.38;5102568;27;45801;-78
2021/12/14 02:46:29;;;;;;;;;8.00;7.00;;;;;7.79;80.04;102105.47;5073622;27;46723;-78
2021/12/14 02:48:57;;;;;;;;;9.25;9.00;;;;;7.82;80.02;102105.38;5075416;27;45777;-76
2021/12/14 02:51:28;;;;;;;;;7.00;7.00;;;;;7.80;79.97;102102.81;5079050;28;45536;-78
2021/12/14 02:54:01;;;;;;;;;14.00;8.50;;;;;7.83;79.87;102094.84;5095437;27;46759;-78
2021/12/14 02:56:31;;;;;;;;;10.25;9.00;;;;;7.86;79.91;102099.13;5080193;28;46050;-79
2021/12/14 02:59:05;;;;;;;;;12.25;9.00;;;;;7.86;79.99;102113.03;5110882;27;45646;-78
2021/12/14 03:01:34;;;;;;;;;13.75;10.00;;;;;7.90;79.81;102111.16;5076663;28;45565;-79
2021/12/14 03:04:04;;;;;;;;;10.00;7.00;;;;;7.88;79.96;102102.53;5075101;28;47294;-80
2021/12/14 03:06:44;;;;;;;;;13.25;9.75;;;;;7.90;79.83;102079.84;5074811;28;46335;-80
2021/12/14 03:09:31;;;;;;;;;16.00;14.00;;;;;7.84;79.89;102053.97;5075318;28;45596;-79
2021/12/14 03:11:58;;;;;;;;;14.50;11.25;;;;;8.04;79.98;102077.59;5074946;28;45929;-79
2021/12/14 03:14:26;;;;;;;;;16.50;11.25;;;;;8.06;79.77;102082.72;5074942;28;46521;-81
2021/12/14 03:16:52;;;;;;;;;13.00;10.00;;;;;8.14;79.83;102072.88;5075352;28;46104;-80
2021/12/14 03:19:17;;;;;;;;;12.25;11.00;;;;;8.16;80.00;102064.06;5075076;28;45655;-80
2021/12/14 03:21:46;;;;;;;;;13.00;9.25;;;;;8.23;79.81;102065.53;5075126;28;45521;-81
2021/12/14 03:24:14;;;;;;;;;9.00;8.25;;;;;8.28;79.84;102068.81;5077892;28;45624;-78
2021/12/14 03:26:45;;;;;;;;;12.25;9.75;;;;;8.25;79.88;102076.78;5078626;28;46132;-79
2021/12/14 03:29:22;;;;;;;;;11.25;10.00;;;;;8.29;79.96;102080.97;5110835;27;45615;-80
2021/12/14 03:31:51;;;;;;;;;14.75;12.25;;;;;8.26;79.88;102062.81;5076502;28;45582;-80
2021/12/14 03:34:27;;;;;;;;;11.75;11.00;;;;;8.30;79.90;102077.50;5078769;27;47059;-80
2021/12/14 03:36:55;;;;;;;;;17.00;12.25;;;;;8.35;79.73;102077.31;5078798;28;46118;-79
2021/12/14 03:39:25;;;;;;;;;14.50;11.00;;;;;8.36;79.90;102072.03;5078655;28;45518;-79
2021/12/14 03:42:23;;;;;;;;;13.50;10.50;;;;;8.38;79.76;102064.13;5079088;28;45699;-80
2021/12/14 03:44:53;;;;;;;;;12.00;11.00;;;;;8.37;79.66;102051.97;5079660;28;45726;-81
2021/12/14 03:47:26;;;;;;;;;13.00;10.75;;;;;8.31;79.92;102036.56;5078109;28;46275;-77
2021/12/14 03:49:58;;;;;;;;;14.50;10.50;;;;;8.37;79.90;102049.38;5078073;28;45502;-79
2021/12/14 03:52:31;;;;;;;;;11.75;10.75;;;;;8.35;79.77;102054.66;5078233;28;45757;-76
2021/12/14 03:54:59;;;;;;;;;13.75;11.50;;;;;8.32;79.85;102061.75;5077878;28;46758;-77
2021/12/14 03:57:25;;;;;;;;;10.50;10.00;;;;;8.31;79.92;102060.91;5077980;28;46261;-78
2021/12/14 03:59:51;;;;;;;;;10.00;10.00;;;;;8.25;79.60;102050.69;5077839;28;45735;-78
2021/12/14 04:02:18;;;;;;;;;16.25;14.00;;;;;8.32;79.86;102060.00;5077941;28;45542;-79
2021/12/14 04:04:53;;;;;;;;;12.25;9.50;;;;;8.33;79.73;102047.78;5077679;28;46607;-79
2021/12/14 04:07:26;;;;;;;;;14.75;12.00;;;;;8.37;79.85;102049.38;5076637;28;46201;-80
2021/12/14 04:09:52;;;;;;;;;15.00;11.00;;;;;8.40;79.75;102046.66;5076454;28;45541;-79
2021/12/14 04:12:19;;;;;;;;;15.50;14.25;;;;;8.42;79.50;102037.00;5078128;28;45723;-79
2021/12/14 04:14:52;;;;;;;;;15.00;14.25;;;;;8.36;79.58;102030.28;5077651;28;47281;-79
2021/12/14 04:17:20;;;;;;;;;16.25;13.50;;;;;8.38;79.69;102022.34;5093571;27;46439;-79
2021/12/14 04:19:46;;;;;;;;;16.50;14.00;;;;;8.42;79.70;102037.00;5109810;27;45571;-78
2021/12/14 04:22:19;;;;;;;;;13.50;11.50;;;;;8.43;79.68;102039.53;5078806;28;46026;-78
2021/12/14 04:24:49;;;;;;;;;13.25;12.00;;;;;8.49;79.50;102053.25;5080265;28;46611;-78
2021/12/14 04:27:22;;;;;;;;;14.00;14.00;;;;;8.52;79.46;102063.63;5079917;28;45560;-79
2021/12/14 04:29:49;;;;;;;;;18.50;16.00;;;;;8.54;79.38;102072.22;5080325;28;45675;-77
2021/12/14 04:32:16;;;;;;;;;21.75;14.25;;;;;8.56;79.37;102073.03;5077359;28;45545;-78
2021/12/14 04:34:43;;;;;;;;;16.25;14.50;;;;;8.56;79.45;102062.56;5076628;28;45703;-77
2021/12/14 04:37:10;;;;;;;;;19.25;15.25;;;;;8.59;79.62;102067.66;5077285;28;46460;-77
2021/12/14 04:39:46;;;;;;;;;21.25;16.50;;;;;8.61;79.52;102079.78;5076844;28;45920;-78
2021/12/14 04:53:49;;;;;;;;;15.75;12.25;;;;;8.59;79.48;102068.50;5077076;28;45754;-78
2021/12/14 04:56:19;;;;;;;;;15.75;14.00;;;;;8.55;79.50;102072.16;5077325;28;46404;-79
2021/12/14 04:58:52;;;;;;;;;15.00;12.25;;;;;8.53;79.45;102073.16;5076671;28;46544;-80
2021/12/14 05:04:39;;;;;;;;;19.75;14.50;;;;;8.38;79.53;102070.22;5077507;28;45740;-79
2021/12/14 05:07:28;;;;;;;;;16.00;13.25;;;;;8.31;79.61;102060.06;5076736;27;47856;-80
2021/12/14 05:09:52;;;;;;;;;12.25;10.75;;;;;8.33;79.59;102074.75;5104346;27;46556;-81
2021/12/14 05:12:22;;;;;;;;;18.00;15.00;;;;;8.33;79.73;102073.91;5075278;28;45820;-80
2021/12/14 05:14:49;;;;;;;;;15.00;13.75;;;;;8.30;79.66;102077.50;5076551;28;45728;-80
2021/12/14 05:20:43;;;;;;;;;15.75;13.75;;;;;8.23;79.83;102081.22;5076405;28;46157;-79
2021/12/14 05:23:09;;;;;;;;;20.75;14.25;;;;;8.21;79.53;102085.63;5075631;28;45882;-80
2021/12/14 05:25:37;;;;;;;;;13.25;11.75;;;;;8.19;79.76;102077.03;5077205;28;45843;-78
2021/12/14 05:28:04;;;;;;;;;15.00;13.75;;;;;8.06;79.87;102065.31;5076075;28;47383;-79
2021/12/14 05:30:34;;;;;;;;;15.00;14.00;;;;;8.14;79.66;102081.56;5076495;28;46119;-78
2021/12/14 05:36:22;;;;;;;;;14.00;10.75;;;;;8.15;79.55;102079.81;5076289;28;45531;-79
2021/12/14 05:39:17;;;;;;;;;23.00;15.00;;;;;8.10;79.77;102077.34;5076355;28;45927;-77
2021/12/14 05:44:28;;;;;;;;;16.25;14.50;;;;;8.11;79.66;102084.25;5076287;28;45760;-75
2021/12/14 05:47:01;;;;;;;;;18.25;13.25;;;;;8.11;79.78;102083.41;5075130;28;45600;-78
2021/12/14 05:49:29;;;;;;;;;18.75;13.75;;;;;8.09;79.85;102072.19;5074606;28;46102;-77
2021/12/14 05:51:57;;;;;;;;;20.50;16.00;;;;;8.10;79.83;102089.56;5076165;28;46241;-77
2021/12/14 05:54:28;;;;;;;;;15.25;14.00;;;;;8.08;80.14;102088.75;5077293;28;45829;-78
2021/12/14 05:56:57;;;;;;;;;17.50;14.25;;;;;7.95;80.01;102073.53;5077421;28;45780;-76
2021/12/14 05:59:30;;;;;;;;;20.00;17.00;;;;;7.96;80.13;102077.88;5076677;28;45666;-79
2021/12/14 06:01:57;;;;;;;;;21.00;14.75;;;;;7.89;80.13;102078.97;5076444;28;46279;-79
2021/12/14 06:04:26;;;;;;;;;20.00;13.75;;;;;7.73;80.07;102059.56;5076488;28;45566;-80
2021/12/14 06:06:54;;;;;;;;;19.50;12.25;;;;;7.93;80.16;102098.88;5076639;28;45716;-81
2021/12/14 06:09:24;;;;;;;;;18.50;15.00;;;;;7.92;80.31;102104.13;5075956;28;46522;-80
2021/12/14 06:12:01;;;;;;;;;13.75;10.50;;;;;7.87;80.53;102090.41;5075972;28;45996;-79
2021/12/14 06:14:28;;;;;;;;;16.50;14.75;;;;;7.86;80.48;102097.38;5075647;28;45604;-79
2021/12/14 06:16:58;;;;;;;;;13.50;9.00;;;;;7.88;80.39;102118.19;5076007;28;45663;-78
2021/12/14 06:19:30;;;;;;;;;17.25;13.50;;;;;7.84;80.37;102124.41;5075606;28;45636;-78
2021/12/14 06:22:00;;;;;;;;;21.25;13.00;;;;;7.84;80.40;102133.09;5075300;28;47306;-78
2021/12/14 06:24:29;;;;;;;;;18.25;15.50;;;;;7.80;80.48;102134.13;5075522;28;45975;-78
2021/12/14 06:26:57;;;;;;;;;16.25;14.25;;;;;7.73;80.46;102135.22;5075952;28;45686;-79
2021/12/14 06:29:30;;;;;;;;;15.25;14.25;;;;;7.80;80.35;102154.13;5075546;28;46468;-77
2021/12/14 06:32:08;;;;;;;;;18.00;14.75;;;;;7.76;80.39;102142.97;5075263;28;45616;-77
2021/12/14 06:34:34;;;;;;;;;11.75;10.75;;;;;7.76;80.67;102144.72;5075427;28;45580;-77
2021/12/14 06:37:53;;;;;;;;;10.50;10.00;;;;;7.72;80.65;102143.94;5075635;28;46079;-78
2021/12/14 06:40:26;;;;;;;;;13.00;10.25;;;;;7.66;80.68;102148.53;5073301;28;45687;-79
2021/12/14 06:42:58;;;;;;;;;16.00;10.75;;;;;7.55;80.66;102138.47;5072749;28;46319;-77
2021/12/14 06:45:29;;;;;;;;;11.75;6.50;;;;;7.55;80.92;102148.91;5073041;28;45643;-80
2021/12/14 06:48:03;;;;;;;;;16.00;12.00;;;;;7.46;81.10;102147.44;5066179;28;45736;-80
2021/12/14 06:50:37;;;;;;;;;11.25;9.00;;;;;7.47;80.93;102158.72;5072529;28;46730;-80
2021/12/14 06:53:08;;;;;;;;;13.50;10.00;;;;;7.41;80.85;102153.72;5073159;28;46656;-77
2021/12/14 06:55:34;;;;;;;;;16.25;12.25;;;;;7.41;80.70;102148.50;5073044;28;45802;-78
2021/12/14 06:58:06;;;;;;;;;17.50;10.25;;;;;7.45;80.71;102153.56;5073290;28;45722;-78
2021/12/14 07:00:33;;;;;;;;;14.25;11.50;;;;;7.48;80.86;102156.06;5073161;28;45644;-78
2021/12/14 07:02:58;;;;;;;;;13.25;10.00;;;;;7.43;80.71;102146.72;5072931;28;46145;-78
2021/12/14 07:05:27;;;;;;;;;14.00;11.00;;;;;7.50;80.65;102164.69;5073096;28;45808;-78
2021/12/14 07:07:52;;;;;;;;;14.25;10.25;;;;;7.46;80.47;102152.66;5073625;28;45741;-79
2021/12/14 07:10:20;;;;;;;;;14.25;12.00;;;;;7.52;80.74;102156.81;5073254;28;45583;-80
2021/12/14 07:12:46;;;;;;;;;11.50;11.25;;;;;7.58;80.61;102164.44;5072830;28;45656;-77
2021/12/14 07:15:11;;;;;;;;;14.00;8.75;;;;;7.58;80.78;102162.69;5075102;27;45557;-79
2021/12/14 07:17:43;;;;;;;;;14.00;9.75;;;;;7.59;80.88;102161.78;5073186;28;46011;-81
2021/12/14 07:20:11;;;;;;;;;18.00;12.00;;;;;7.63;80.67;102151.25;5075327;28;46444;-78
2021/12/14 07:22:44;;;;;;;;;16.00;11.50;;;;;7.65;80.69;102160.72;5075775;28;46081;-77
2021/12/14 07:25:20;;;;;;;;;11.50;10.00;;;;;7.69;80.61;102157.09;5075715;27;45898;-77
2021/12/14 07:27:47;;;;;;;;;13.50;12.00;;;;;7.72;80.58;102150.94;5075510;28;45735;-81
2021/12/14 07:30:35;;;;;;;;;16.00;13.75;;;;;7.74;80.60;102163.00;5076142;28;45665;-80
2021/12/14 07:33:19;;;;;;;;;15.00;13.00;;;;;7.77;80.63;102162.06;5075091;28;46442;-79
2021/12/14 07:35:55;;;;;;;;;16.50;13.75;;;;;7.77;80.72;102168.16;5074699;28;45637;-78
2021/12/14 07:38:26;;;;;;;;;16.75;16.00;;;;;7.70;81.05;102147.53;5074679;28;45534;-80
2021/12/14 07:41:00;;;;;;;;;16.00;13.25;;;;;7.74;80.74;102147.38;5074199;28;46434;-79
2021/12/14 07:43:31;;;;;;;;;18.25;12.50;;;;;7.79;80.79;102162.84;5074065;28;46340;-78
2021/12/14 07:45:58;;;;;;;;;15.50;13.75;;;;;7.74;80.44;102162.16;5074820;28;45664;-80
2021/12/14 07:48:44;;;;;;;;;13.50;11.25;;;;;7.84;80.98;102171.38;5068622;28;45705;-80
2021/12/14 07:51:11;;;;;;;;;10.50;10.25;;;;;7.86;80.68;102169.56;5074268;28;45599;-79
2021/12/14 07:53:41;;;;;;;;;18.50;13.00;;;;;7.86;80.68;102177.41;5074096;28;46649;-79
2021/12/14 07:56:24;;;;;;;;;17.50;12.25;;;;;7.88;80.83;102176.41;5074145;28;45691;-78
2021/12/14 07:58:50;;;;;;;;;16.00;10.25;;;;;7.93;80.47;102182.38;5074268;28;45522;-80
2021/12/14 08:01:15;;;;;;;;;10.75;10.00;;;;;7.93;80.66;102176.28;5073981;28;45438;-77
2021/12/14 08:03:41;;;;;;;;;16.25;13.50;;;;;8.02;80.76;102191.63;5073768;28;46983;-79
2021/12/14 08:06:10;;;;;;;;;14.00;14.00;;;;;8.06;80.69;102192.34;5072343;28;45675;-77
2021/12/14 08:08:53;;;;;;;;;20.25;15.25;;;;;8.04;80.50;102200.25;5075110;28;45582;-79
2021/12/14 08:11:40;;;;;;;;;14.50;12.50;;;;;8.00;80.52;102193.41;5077471;28;46724;-78
2021/12/14 08:14:13;;;;;;;;;18.50;16.25;;;;;8.08;80.65;102208.81;5078064;28;46191;-78
2021/12/14 08:16:49;;;;;;;;;16.25;14.50;;;;;8.09;80.47;102219.22;5078098;28;45824;-77
2021/12/14 08:19:25;;;;;;;;;18.75;14.00;;;;;8.09;80.54;102218.38;5077872;28;45630;-79
2021/12/14 08:21:51;;;;;;;;;19.00;15.50;;;;;7.89;80.52;102178.13;5077783;28;45713;-78
2021/12/14 08:24:17;;;;;;;;;15.50;14.75;;;;;8.13;80.33;102227.78;5077858;28;46220;-79
2021/12/14 08:26:52;;;;;;;;;15.75;14.75;;;;;8.14;80.52;102226.88;5077713;28;45593;-78
2021/12/14 08:29:24;;;;;;;;;14.25;14.00;;;;;8.17;80.42;102221.53;5077625;28;45546;-80
2021/12/14 08:31:58;;;;;;;;;21.50;15.50;;;;;8.20;80.44;102224.06;5077130;28;45603;-78
2021/12/14 08:34:31;;;;;;;;;18.50;14.50;;;;;8.18;80.30;102224.09;5077336;28;46345;-78
2021/12/14 08:36:59;;;;;;;;;15.75;15.50;;;;;8.24;80.54;102217.81;5077320;27;45850;-79
2021/12/14 08:39:31;;;;;;;;;20.00;13.00;;;;;8.25;80.44;102212.56;5077886;28;45585;-79
2021/12/14 08:42:15;;;;;;;;;22.75;18.50;;;;;8.19;80.37;102199.72;5077020;28;45650;-78
2021/12/14 08:44:51;;;;;;;;;19.50;15.50;;;;;8.36;80.34;102228.72;5077022;28;45498;-77
2021/12/14 08:50:46;;;;;;;;;18.50;14.25;;;;;8.38;80.23;102239.94;5067411;28;45756;-79
2021/12/14 08:53:14;;;;;;;;;21.00;18.50;;;;;8.39;80.16;102244.25;5079663;28;46396;-78
2021/12/14 08:55:45;;;;;;;;;20.50;16.00;;;;;8.39;80.43;102243.41;5080902;28;45526;-78
2021/12/14 08:58:12;;;;;;;;;17.00;16.00;;;;;8.38;80.27;102244.31;5081639;28;45864;-79
2021/12/14 09:00:43;;;;;;;;;16.00;15.25;;;;;8.31;80.23;102235.00;5081262;28;45660;-80
2021/12/14 09:06:36;;;;;;;;;23.00;18.00;;;;;8.33;80.40;102234.03;5076418;28;46006;-79
2021/12/14 09:09:06;;;;;;;;;17.75;13.50;;;;;8.36;80.49;102228.72;5076721;28;45888;-78
2021/12/14 09:11:35;;;;;;;;;19.50;17.75;;;;;8.38;80.27;102229.50;5076292;28;45762;-78
2021/12/14 09:14:02;;;;;;;;;14.25;13.00;;;;;8.38;80.30;102232.09;5076526;28;45732;-79
2021/12/14 09:16:31;;;;;;;;;18.50;14.50;;;;;8.38;80.29;102226.03;5076391;28;46054;-78
2021/12/14 09:22:41;;;;;;;;;7.75;6.00;;;;;8.42;80.40;102225.84;5075888;28;45663;-80
2021/12/14 09:25:10;;;;;;;;;18.75;16.50;;;;;8.49;80.13;102223.88;5076374;28;45640;-78
2021/12/14 09:27:36;;;;;;;;;27.25;21.00;;;;;8.53;80.17;102235.09;5076570;28;45624;-78
2021/12/14 09:30:04;;;;;;;;;23.25;20.25;;;;;8.49;80.09;102229.09;5076229;28;45585;-78
2021/12/14 09:32:29;;;;;;;;;24.25;18.50;;;;;8.49;79.90;102223.88;5076347;28;45643;-79
2021/12/14 09:38:19;;;;;;;;;21.25;19.50;;;;;8.63;79.86;102242.53;5075858;28;45975;-79
2021/12/14 09:40:51;;;;;;;;;20.25;18.00;;;;;8.61;80.09;102233.03;5075805;28;45533;-80
2021/12/14 09:43:17;;;;;;;;;21.50;19.75;;;;;8.69;79.95;102241.47;5075965;28;45545;-80
2021/12/14 09:45:47;;;;;;;;;19.25;16.75;;;;;8.66;80.15;102241.56;5075610;28;46969;-80
2021/12/14 09:48:19;;;;;;;;;19.00;16.00;;;;;8.72;80.00;102252.63;5075684;28;46076;-80
2021/12/14 09:50:47;;;;;;;;;21.00;18.00;;;;;8.76;80.14;102254.22;5075423;28;45667;-81
2021/12/14 09:53:17;;;;;;;;;17.50;15.25;;;;;8.80;79.89;102263.66;5074556;28;45742;-81
2021/12/14 09:55:45;;;;;;;;;30.25;22.50;;;;;8.82;79.94;102263.59;5075693;28;45521;-79
2021/12/14 09:58:23;;;;;;;;;26.75;23.75;;;;;8.85;79.72;102271.34;5076224;28;46421;-79
2021/12/14 10:01:13;;;;;;;;;25.00;21.25;;;;;8.84;79.88;102259.19;5075788;28;45884;-79
2021/12/14 10:03:39;;;;;;;;;20.75;18.00;;;;;8.89;79.83;102261.63;5108834;27;45516;-79
2021/12/14 10:06:09;;;;;;;;;49.75;41.25;;;;;8.84;79.62;102248.72;5076121;28;45544;-78
2021/12/14 10:08:43;;;;;;;;;30.00;21.75;;;;;8.95;79.49;102264.84;5076078;28;45778;-77
2021/12/14 10:11:24;;;;;;;;;22.25;19.25;;;;;9.00;79.52;102262.06;5075701;28;45636;-78
2021/12/14 10:13:52;;;;;;;;;32.50;21.00;;;;;9.03;79.56;102261.94;5075863;28;45692;-80
2021/12/14 10:16:17;;;;;;;;;20.50;17.50;;;;;9.05;79.43;102258.38;5075594;28;47570;-79
2021/12/14 10:18:59;;;;;;;;;26.00;22.50;;;;;9.06;79.53;102260.06;5075343;28;45698;-80
2021/12/14 10:21:39;;;;;;;;;23.75;22.75;;;;;9.04;79.56;102256.66;5075927;28;45778;-84
2021/12/14 10:24:07;;;;;;;;;26.50;20.50;;;;;9.09;79.64;102257.34;5076749;28;45595;-74
2021/12/14 10:26:35;;;;;;;;;24.75;19.75;;;;;9.11;79.61;102259.91;5077143;28;46548;-76
2021/12/14 10:29:03;;;;;;;;;22.00;20.00;;;;;9.12;79.47;102265.03;5078003;28;46179;-80
2021/12/14 10:31:39;;;;;;;;;20.75;19.25;;;;;9.15;79.41;102269.31;5076359;28;45626;-77
2021/12/14 10:34:10;;;;;;;;;26.25;22.00;;;;;9.16;79.57;102263.19;5075563;28;45609;-77
2021/12/14 10:36:42;;;;;;;;;28.00;23.50;;;;;9.17;79.42;102260.50;5075144;28;46335;-76
2021/12/14 10:44:32;;;;;;;;;23.50;20.75;;;;;9.22;79.36;102266.41;5074866;28;45803;-76
2021/12/14 10:46:59;;;;;;;;;21.25;20.75;;;;;9.28;79.29;102267.94;5074497;28;45831;-76
2021/12/14 10:49:25;;;;;;;;;25.00;18.00;;;;;9.31;79.36;102267.81;5074247;28;46299;-77
2021/12/14 10:51:59;;;;;;;;;23.50;18.25;;;;;9.32;79.23;102263.44;5074615;28;45581;-80
2021/12/14 10:54:27;;;;;;;;;21.75;19.75;;;;;9.36;79.18;102271.09;5075257;28;45572;-80
2021/12/14 10:56:57;;;;;;;;;27.75;21.00;;;;;9.27;79.08;102248.78;5074589;28;45651;-78
2021/12/14 10:59:27;;;;;;;;;17.25;16.50;;;;;9.40;79.12;102263.97;5107848;27;47241;-80
2021/12/14 11:01:53;;;;;;;;;23.00;17.50;;;;;9.43;79.16;102264.72;5074808;28;45992;-79
2021/12/14 11:04:26;;;;;;;;;22.75;16.75;;;;;9.50;79.01;102266.16;5074476;27;45513;-78
2021/12/14 11:06:53;;;;;;;;;26.75;21.00;;;;;9.55;79.09;102263.38;5074480;28;46289;-79
2021/12/14 11:09:43;;;;;;;;;20.50;17.50;;;;;9.60;78.91;102256.19;5074713;28;45876;-79
2021/12/14 11:12:34;;;;;;;;;20.50;20.50;;;;;9.66;78.98;102258.56;5074732;28;45797;-78
2021/12/14 11:15:17;;;;;;;;;26.75;22.00;;;;;9.72;78.88;102263.53;5075460;28;45532;-79
2021/12/14 11:20:37;;;;;;;;;21.25;18.25;;;;;9.70;78.75;102244.44;5078578;28;46040;-75
2021/12/14 11:23:16;;;;;;;;;23.00;18.50;;;;;9.83;78.73;102252.59;5077356;28;45890;-74
2021/12/14 11:25:51;;;;;;;;;24.50;21.50;;;;;9.87;78.85;102246.34;5079401;28;45630;-77
2021/12/14 11:28:54;;;;;;;;;23.75;22.00;;;;;9.91;78.79;102258.41;5077621;28;46525;-77
2021/12/14 11:31:23;;;;;;;;;25.00;19.00;;;;;9.92;78.71;102253.09;5076432;28;46338;-77
2021/12/14 11:37:15;;;;;;;;;23.25;22.25;;;;;9.93;78.33;102249.53;5073150;28;45511;-77
2021/12/14 11:39:47;;;;;;;;;22.50;18.75;;;;;9.95;78.34;102246.88;5072404;28;45777;-78
2021/12/14 11:42:18;;;;;;;;;38.25;34.25;;;;;10.03;78.42;102247.41;5072636;28;45545;-78
2021/12/14 11:44:48;;;;;;;;;24.00;21.00;;;;;10.06;78.33;102248.13;5074158;28;45809;-75
2021/12/14 11:53:38;;;;;;;;;22.50;20.50;;;;;10.13;78.26;102247.88;5071709;28;45764;-75
2021/12/14 11:56:09;;;;;;;;;24.50;18.50;;;;;10.17;78.34;102241.59;5076011;28;45608;-74
2021/12/14 11:58:50;;;;;;;;;29.25;20.25;;;;;10.21;78.21;102237.94;5075854;28;45640;-74
2021/12/14 12:01:25;;;;;;;;;18.25;16.75;;;;;10.25;78.34;102232.50;5075806;28;46567;-75
2021/12/14 12:09:50;;;;;;;;;36.25;30.00;;;;;10.32;78.07;102227.84;5076790;28;45533;-75
2021/12/14 12:12:29;;;;;;;;;37.25;34.00;;;;;10.34;78.06;102226.00;5076191;28;46543;-74
2021/12/14 12:14:55;;;;;;;;;28.75;22.75;;;;;10.36;78.02;102226.81;5076520;28;46132;-73
2021/12/14 12:17:26;;;;;;;;;25.75;22.50;;;;;10.39;77.88;102226.66;5076359;28;46042;-74
2021/12/14 12:23:16;;;;;;;;;28.50;23.50;;;;;10.26;77.99;102202.75;5076359;28;46041;-74
2021/12/14 12:25:43;;;;;;;;;25.25;20.75;;;;;10.36;77.72;102217.19;5076425;28;46038;-75
2021/12/14 12:28:09;;;;;;;;;30.50;24.75;;;;;10.40;77.87;102228.38;5076525;28;45600;-78
2021/12/14 12:30:47;;;;;;;;;25.00;19.25;;;;;10.42;77.84;102223.88;5076147;28;45764;-75
2021/12/14 12:33:12;;;;;;;;;28.00;26.00;;;;;10.41;77.83;102225.69;5075859;28;47194;-74
2021/12/14 12:35:37;;;;;;;;;28.67;24.00;;;;;10.41;77.79;102230.94;5076323;28;45600;-74
2021/12/14 12:38:40;;;;;;;;;24.25;22.25;;;;;10.42;77.57;102229.13;5075864;28;45613;-75
2021/12/14 12:41:11;;;;;;;;;31.75;21.75;;;;;10.41;77.70;102236.16;5076270;28;45538;-76
2021/12/14 12:43:51;;;;;;;;;23.75;20.50;;;;;10.44;77.65;102230.78;5076359;28;45555;-77
2021/12/14 12:46:27;;;;;;;;;25.50;21.25;;;;;10.45;77.70;102218.53;5076230;28;46185;-76
2021/12/14 12:48:56;;;;;;;;;29.00;23.25;;;;;10.48;77.39;102215.75;5076279;28;45925;-78
2021/12/14 12:51:44;;;;;;;;;22.50;21.50;;;;;10.51;77.39;102205.16;5075680;28;45681;-76
2021/12/14 12:54:17;;;;;;;;;27.00;25.50;;;;;10.54;77.30;102212.88;5076072;27;46621;-77